Arago, Minnesota
Current Conditions -  °F | °C
As of 7:53 AM on Monday 24 Nov 2014 (Local Time) from KPKD Reporting Station
Light Snow Light Snow  
Wind Chill: -20°   Ceiling: 1800
Heat Index: -11°   Visibility: 6mi
Dew Point: -13°   Wind: 18mph
Humidity: 81%   Direction: 320°NW
Pressure: 29.48"   Gusts: 26mph
Location:  46.9966°N, 95.0029°W
Report Text: KPKD 241353Z AUTO 32016G23KT 6SM -SN OVC018 M11/M13 A2948 RMK AO2 SLP007 P0000 T11061133
Loading
Personal Weather Stations






























Interactive Weather Map New forecast layout! Learn more

10-Day Weather Forecast

Advertisements
Track Severe Weather on mobile